Date,TemperatureHighF,TemperatureAvgF,TemperatureLowF,DewpointHighF,DewpointAvgF,DewpointLowF,HumidityHigh,HumidityAvg,HumidityLow,PressureMaxIn,PressureMinIn,WindSpeedMaxMPH,WindSpeedAvgMPH,GustSpeedMaxMPH,PrecipitationSumIn
2013-1-1,34.0,27.4,13.3,26.2,-15.6,-99.9,85,59,44,0.00,40.00,0,-999,0,0.00
2013-1-2,28.8,16.6,8.2,10.3,-7.4,-99.9,90,63,45,0.00,40.00,0,-999,0,0.00
2013-1-3,19.4,10.0,0.0,10.2,-26.0,-99.9,85,61,28,0.00,40.00,0,-999,0,0.00
2013-1-4,35.4,26.8,16.2,20.9,16.8,10.0,99,72,54,0.00,40.00,0,-999,0,0.00
2013-1-5,38.3,30.7,21.7,22.1,-11.6,-99.9,90,62,42,0.00,40.00,0,-999,0,0.00
2013-1-6,39.0,29.5,21.6,30.1,25.0,16.6,99,87,58,0.00,40.00,0,-999,0,0.00
2013-1-7,36.0,28.7,18.0,31.2,13.5,-99.9,99,80,47,0.00,40.00,0,-999,0,0.00
2013-1-8,41.7,29.7,14.9,29.4,23.3,14.7,99,82,51,0.00,40.00,0,-999,0,0.00
2013-1-9,39.0,31.4,20.5,38.8,28.6,20.4,99,91,57,0.00,40.00,0,-999,0,0.00
2013-1-10,40.5,34.8,25.9,27.8,-0.3,-99.9,99,65,45,0.00,40.00,0,-999,0,0.00
2013-1-11,36.1,30.0,22.3,34.5,27.4,20.5,99,92,63,0.00,40.00,0,-999,0,0.00
2013-1-12,40.6,36.7,34.0,40.6,36.6,33.9,99,99,99,0.00,40.00,0,-999,0,0.00
2013-1-13,44.2,40.0,35.4,44.2,39.9,35.4,99,99,99,0.00,40.00,0,-999,0,0.00
2013-1-14,49.1,43.1,33.8,48.9,38.3,23.3,99,86,55,0.00,40.00,0,-999,0,0.00
2013-1-15,36.5,32.2,27.5,31.4,25.6,19.8,99,81,55,0.00,40.00,0,-999,0,0.00
2013-1-16,32.0,30.5,28.2,32.0,30.4,28.2,99,99,99,0.00,40.00,0,-999,0,0.00
2013-1-17,37.6,31.3,25.7,37.0,25.8,8.6,99,84,52,0.00,40.00,0,-999,0,0.00
2013-1-18,25.7,18.8,14.9,10.6,-62.1,-99.9,59,43,29,0.00,40.00,0,-999,0,0.00
2013-1-19,40.3,32.2,18.9,30.7,14.0,-99.9,86,58,49,0.00,40.00,0,-999,0,0.00
2013-1-20,46.8,36.0,23.9,31.6,-16.5,-99.9,91,60,30,0.00,40.00,0,-999,0,0.00
2013-1-21,26.4,21.1,15.6,21.9,-19.7,-99.9,99,66,39,0.00,40.00,0,-999,0,0.00
2013-1-22,19.4,14.7,7.7,18.5,-38.8,-99.9,99,63,29,0.00,40.00,0,-999,0,0.00
2013-1-23,13.1,5.9,1.0,-4.3,-69.9,-99.9,67,44,32,0.00,40.00,0,-999,0,0.00
2013-1-24,14.5,6.0,0.0,-10.7,-68.2,-99.9,70,45,28,0.00,40.00,0,-999,0,0.00
2013-1-25,18.9,11.2,3.2,14.3,-82.5,-99.9,99,45,28,0.00,40.00,0,-999,0,0.00
2013-1-26,20.7,12.5,5.5,13.6,-48.9,-99.9,99,63,30,0.00,40.00,0,-999,0,0.00
2013-1-27,25.3,15.1,5.7,-2.5,-58.4,-99.9,76,48,28,0.00,40.00,0,-999,0,0.00
2013-1-28,27.9,21.1,11.1,26.7,6.2,-99.9,99,80,34,0.00,40.00,0,-999,0,0.00
2013-1-29,35.8,30.2,25.3,35.7,30.1,25.3,99,99,99,0.00,40.00,0,-999,0,0.00
2013-1-30,55.9,46.4,32.0,55.9,46.4,32.0,99,99,99,0.00,40.00,0,-999,0,0.00
2013-1-31,59.2,43.5,27.3,59.1,11.3,-99.9,99,75,40,0.00,40.00,0,-999,0,0.00
2013-2-1,30.2,24.3,18.9,14.0,-66.0,-99.9,73,45,31,0.00,40.00,0,-999,0,0.00
2013-2-2,27.5,20.5,12.4,20.1,-65.9,-99.9,99,47,33,0.00,40.00,0,-999,0,0.00
2013-2-3,27.7,21.1,13.8,20.1,15.9,10.9,99,85,55,0.00,40.00,0,-999,0,0.00
2013-2-4,25.9,19.2,15.3,16.3,-12.6,-99.9,99,70,39,0.00,40.00,0,-999,0,0.00
2013-2-5,29.7,22.5,17.4,23.6,-0.7,-99.9,99,71,47,0.00,40.00,0,-999,0,0.00
2013-2-6,34.3,25.7,18.3,27.3,-23.2,-99.9,99,69,34,0.00,40.00,0,-999,0,0.00
2013-2-7,28.2,20.9,11.5,6.9,-60.9,-99.9,82,48,29,0.00,40.00,0,-999,0,0.00
2013-2-8,29.8,23.8,16.5,29.6,12.4,-99.9,99,91,37,0.00,40.00,0,-999,0,0.00
2013-2-9,23.4,16.9,11.3,17.6,-24.2,-99.9,99,73,39,0.00,40.00,0,-999,0,0.00
2013-2-10,32.5,17.2,1.9,2.9,-57.9,-99.9,75,46,25,0.00,40.00,0,-999,0,0.00
2013-2-11,41.5,31.2,14.2,41.5,29.1,1.5,99,93,64,0.00,40.00,0,-999,0,0.00
2013-2-12,39.4,34.3,30.7,35.6,28.3,18.9,99,83,59,0.00,40.00,0,-999,0,0.00
2013-2-13,39.0,32.7,29.1,29.8,12.0,-99.9,99,70,46,0.00,40.00,0,-999,0,0.00
2013-2-14,40.1,31.4,22.8,29.1,-5.1,-99.9,99,76,39,0.00,40.00,0,-999,0,0.00
2013-2-15,47.3,36.1,26.8,35.7,29.5,-99.9,99,83,49,0.00,40.00,0,-999,0,0.00
2013-2-16,38.3,32.1,25.3,35.6,25.1,11.5,99,80,53,0.00,40.00,0,-999,0,0.00
2013-2-17,25.3,19.8,11.5,12.0,-85.3,-99.9,63,43,30,0.00,40.00,0,-999,0,0.00
2013-2-18,26.4,16.8,8.8,-6.2,-77.3,-99.9,53,40,25,0.00,40.00,0,-999,0,0.00
2013-2-19,44.8,31.3,16.0,40.8,9.9,-99.9,99,75,46,0.00,40.00,0,-999,0,0.00
2013-2-20,36.0,28.0,21.9,35.9,-17.0,-99.9,99,64,36,0.00,40.00,0,-999,0,0.00
2013-2-21,27.5,23.7,20.3,17.0,-21.4,-99.9,88,58,42,0.00,40.00,0,-999,0,0.00
2013-2-22,40.5,29.3,18.7,27.0,-16.0,-99.9,99,69,37,0.00,40.00,0,-999,0,0.00
2013-2-23,35.1,31.9,29.8,35.0,30.1,22.3,99,94,77,0.00,40.00,0,-999,0,0.00
2013-2-24,37.0,32.8,30.7,37.0,32.8,30.7,99,99,99,0.00,40.00,0,-999,0,0.00
2013-2-25,37.9,32.1,25.9,36.6,31.6,25.8,99,98,78,0.00,40.00,0,-999,0,0.00
2013-2-26,40.1,34.4,30.2,37.4,28.6,23.5,99,83,55,0.00,40.00,0,-999,0,0.00
2013-2-27,40.8,35.7,32.4,40.8,35.6,32.1,99,99,99,0.00,40.00,0,-999,0,0.00
2013-2-28,41.7,35.0,31.3,41.7,34.9,31.2,99,99,99,0.00,40.00,0,-999,0,0.00
2013-3-1,41.5,34.9,29.8,35.7,27.1,21.5,99,78,52,0.00,40.00,0,-999,0,0.00
2013-3-2,38.3,33.3,30.0,30.5,25.9,22.0,99,79,57,0.00,40.00,0,-999,0,0.00
2013-3-3,35.2,30.0,27.3,33.6,25.6,19.1,99,87,65,0.00,40.00,0,-999,0,0.00
2013-3-4,36.3,29.1,22.3,23.9,19.2,16.4,96,72,51,0.00,40.00,0,-999,0,0.00
2013-3-5,43.5,32.9,23.0,30.3,17.6,-99.9,99,72,48,0.00,40.00,0,-999,0,0.00
2013-3-6,37.6,33.5,30.6,37.2,33.1,28.7,99,98,78,0.00,40.00,0,-999,0,0.00
2013-3-7,34.5,31.1,29.1,33.9,30.2,25.4,99,97,76,0.00,40.00,0,-999,0,0.00
2013-3-8,37.0,31.5,28.4,37.0,31.3,27.1,99,99,90,0.00,40.00,0,-999,0,0.00
2013-3-9,49.8,36.2,25.7,32.5,-20.9,-99.9,99,69,29,0.00,40.00,0,-999,0,0.00
2013-3-10,47.8,34.8,21.2,36.4,4.7,-99.9,99,78,41,0.00,40.00,0,-999,0,0.00
2013-3-11,50.5,40.1,32.5,42.6,36.3,32.5,99,89,50,0.00,40.00,0,-999,0,0.00
2013-3-12,51.6,47.4,41.2,51.6,47.4,41.1,99,99,99,0.00,40.00,0,-999,0,0.00
2013-3-13,45.9,37.4,30.0,41.1,-5.8,-99.9,99,72,36,0.00,40.00,0,-999,0,0.00
2013-3-14,34.2,27.9,21.4,25.9,-37.8,-99.9,78,53,35,0.00,40.00,0,-999,0,0.00
2013-3-15,39.2,28.3,19.0,31.6,-24.0,-99.9,99,60,30,0.00,40.00,0,-999,0,0.00
2013-3-16,36.7,30.4,22.8,27.4,-46.0,-99.9,93,50,30,0.00,40.00,0,-999,0,0.00
2013-3-17,35.2,27.6,20.8,14.9,-56.3,-99.9,81,46,23,0.00,40.00,0,-999,0,0.00
2013-3-18,39.0,26.6,14.4,28.3,-75.2,-99.9,99,39,17,0.00,40.00,0,-999,0,0.00
2013-3-19,37.6,30.7,26.4,37.5,30.6,26.4,99,99,99,0.00,40.00,0,-999,0,0.00
2013-3-20,38.3,28.7,21.6,29.8,-2.2,-99.9,99,74,42,0.00,40.00,0,-999,0,0.00
2013-3-21,39.4,28.7,19.2,22.5,-30.8,-99.9,99,63,27,0.00,40.00,0,-999,0,0.00
2013-3-22,38.3,28.5,18.0,22.2,-5.2,-99.9,87,63,40,0.00,40.00,0,-999,0,0.00
2013-3-23,40.5,32.1,25.0,26.0,-20.7,-99.9,96,62,36,0.00,40.00,0,-999,0,0.00
2013-3-24,44.8,34.4,25.9,25.7,-21.5,-99.9,91,62,37,0.00,40.00,0,-999,0,0.00
2013-3-25,42.8,34.1,27.0,28.0,21.3,-99.9,99,75,47,0.00,40.00,0,-999,0,0.00
2013-3-26,43.3,35.2,28.8,38.8,8.6,-99.9,99,78,40,0.00,40.00,0,-999,0,0.00
2013-3-27,49.6,36.0,23.4,40.2,-10.4,-99.9,99,71,35,0.00,40.00,0,-999,0,0.00
2013-3-28,50.7,39.6,33.1,40.8,9.3,-99.9,99,80,38,0.00,40.00,0,-999,0,0.00
2013-3-29,54.1,41.9,31.1,37.2,-8.7,-99.9,99,69,36,0.00,40.00,0,-999,0,0.00
2013-3-30,54.9,42.3,29.8,34.7,-40.7,-99.9,99,55,20,0.00,40.00,0,-999,0,0.00
2013-3-31,57.7,41.3,26.2,44.2,-14.2,-99.9,99,63,24,0.00,40.00,0,-999,0,0.00
2013-4-1,58.3,41.8,29.7,49.4,10.2,-99.9,99,78,38,0.00,40.00,0,-999,0,0.00
2013-4-2,38.3,30.4,25.3,14.9,-51.4,-99.9,67,47,27,0.00,40.00,0,-999,0,0.00
2013-4-3,42.6,32.6,25.5,13.6,-57.4,-99.9,60,42,25,0.00,40.00,0,-999,0,0.00
2013-4-4,53.2,37.6,23.2,23.7,-48.9,-99.9,78,44,21,0.00,40.00,0,-999,0,0.00
2013-4-5,59.4,42.7,33.3,31.7,-32.6,-99.9,91,53,21,0.00,40.00,0,-999,0,0.00
2013-4-6,47.1,35.6,27.5,26.4,-76.6,-99.9,76,37,18,0.00,40.00,0,-999,0,0.00
2013-4-7,55.9,41.3,25.9,44.6,-41.7,-99.9,99,53,29,0.00,40.00,0,-999,0,0.00
2013-4-8,65.3,50.6,38.1,47.0,-30.6,-99.9,99,64,27,0.00,40.00,0,-999,0,0.00
2013-4-9,67.6,55.6,45.1,58.1,6.4,-99.9,99,71,37,0.00,40.00,0,-999,0,0.00
2013-4-10,66.7,54.4,46.0,59.7,50.2,41.5,99,88,53,0.00,40.00,0,-999,0,0.00
2013-4-11,56.7,46.8,37.8,50.5,28.6,-99.9,99,79,46,0.00,40.00,0,-999,0,0.00
2013-4-12,37.9,35.8,34.9,37.9,35.8,34.8,99,99,99,0.00,40.00,0,-999,0,0.00
2013-4-13,52.3,41.8,33.6,43.5,30.4,-99.9,99,85,44,0.00,40.00,0,-999,0,0.00
2013-4-14,50.2,41.3,32.4,42.0,-10.8,-99.9,99,71,36,0.00,40.00,0,-999,0,0.00
2013-4-15,61.3,44.2,27.5,33.0,-27.8,-99.9,99,62,31,0.00,40.00,0,-999,0,0.00
2013-4-16,67.6,50.6,35.4,56.8,24.6,-99.9,99,79,39,0.00,40.00,0,-999,0,0.00
2013-4-17,66.6,54.5,45.7,54.3,-30.2,-99.9,99,59,24,0.00,40.00,0,-999,0,0.00
2013-4-18,63.0,50.2,34.3,51.4,-27.0,-99.9,99,57,29,0.00,40.00,0,-999,0,0.00
2013-4-19,74.7,61.8,50.9,68.7,60.3,50.9,99,95,63,0.00,40.00,0,-999,0,0.00
2013-4-20,62.8,49.6,37.2,62.7,-20.5,-99.9,99,68,32,0.00,40.00,0,-999,0,0.00
2013-4-21,54.0,40.3,28.0,22.9,-54.6,-99.9,79,44,22,0.00,40.00,0,-999,0,0.00
2013-4-22,54.5,41.5,28.8,31.8,-21.6,-99.9,99,62,28,0.00,40.00,0,-999,0,0.00
2013-4-23,41.4,38.2,33.8,41.3,37.4,29.9,99,97,83,0.00,40.00,0,-999,0,0.00
2013-4-24,76.3,53.9,39.2,53.4,0.8,-99.9,99,74,28,0.00,40.00,0,-999,0,0.00
2013-4-25,62.2,50.9,39.2,52.3,-31.1,-99.9,99,59,23,0.00,40.00,0,-999,0,0.00
2013-4-26,68.0,49.4,31.1,36.2,-34.6,-99.9,99,54,21,0.00,40.00,0,-999,0,0.00
2013-4-27,68.9,51.2,32.7,38.1,-31.6,-99.9,99,59,22,0.00,40.00,0,-999,0,0.00
2013-4-28,74.3,55.1,36.1,41.3,-42.6,-99.9,99,54,23,0.00,40.00,0,-999,0,0.00
2013-4-29,70.3,55.6,45.1,49.7,-41.2,-99.9,99,51,24,0.00,40.00,0,-999,0,0.00
2013-4-30,75.7,59.6,47.5,37.6,-58.9,-99.9,71,35,16,0.00,40.00,0,-999,0,0.00
2013-5-1,77.0,57.2,36.3,44.3,-47.7,-99.9,74,42,21,0.00,40.00,0,-999,0,0.00
2013-5-2,84.2,59.4,41.2,46.0,-31.4,-99.9,99,55,20,0.00,40.00,0,-999,0,0.00
2013-5-3,68.9,54.2,40.1,48.0,-12.7,-99.9,99,62,35,0.00,40.00,0,-999,0,0.00
2013-5-4,71.4,54.7,38.3,48.1,-34.8,-99.9,99,59,14,0.00,40.00,0,-999,0,0.00
2013-5-5,71.8,52.2,32.2,45.0,-26.8,-99.9,99,60,25,0.00,40.00,0,-999,0,0.00
2013-5-6,77.4,55.8,37.4,53.9,-6.5,-99.9,99,70,27,0.00,40.00,0,-999,0,0.00
2013-5-7,83.1,62.9,43.3,61.3,6.5,-99.9,99,71,27,0.00,40.00,0,-999,0,0.00
2013-5-8,72.1,61.4,52.3,66.2,59.4,52.3,99,94,63,0.00,40.00,0,-999,0,0.00
2013-5-9,66.2,59.0,54.3,66.0,58.9,54.3,99,99,89,0.00,40.00,0,-999,0,0.00
2013-5-10,78.6,64.6,53.4,66.6,30.8,-99.9,99,78,40,0.00,40.00,0,-999,0,0.00
2013-5-11,64.8,61.7,58.1,64.7,61.4,58.1,99,98,91,0.00,40.00,0,-999,0,0.00
2013-5-12,69.4,58.0,44.6,61.2,42.1,-99.9,99,76,43,0.00,40.00,0,-999,0,0.00
2013-5-13,56.3,46.8,38.7,35.9,-30.2,-99.9,89,55,31,0.00,40.00,0,-999,0,0.00
2013-5-14,59.2,47.4,38.5,39.2,-22.7,-99.9,98,61,29,0.00,40.00,0,-999,0,0.00
2013-5-15,64.4,47.8,31.8,55.0,14.7,-99.9,99,85,35,0.00,40.00,0,-999,0,0.00
2013-5-16,81.0,64.0,48.2,55.9,-37.8,-99.9,99,57,21,0.00,40.00,0,-999,0,0.00
2013-5-17,70.3,57.8,45.7,48.8,-24.8,-99.9,99,57,29,0.00,40.00,0,-999,0,0.00
2013-5-18,73.8,57.2,40.3,50.0,-7.8,-99.9,99,66,27,0.00,40.00,0,-999,0,0.00
2013-5-19,68.7,56.3,46.6,61.5,53.6,46.5,99,92,58,0.00,40.00,0,-999,0,0.00
2013-5-20,80.1,65.8,54.5,76.0,63.6,54.5,99,93,65,0.00,40.00,0,-999,0,0.00
2013-5-21,87.4,68.0,52.3,79.7,64.9,52.3,99,91,52,0.00,40.00,0,-999,0,0.00
2013-5-22,78.8,63.6,51.6,78.4,63.5,51.6,99,99,93,0.00,40.00,0,-999,0,0.00
2013-5-23,73.9,66.5,63.1,73.9,66.5,63.1,99,99,99,0.00,40.00,0,-999,0,0.00
2013-5-24,66.9,58.8,45.0,66.9,58.8,44.9,99,99,99,0.00,40.00,0,-999,0,0.00
2013-5-25,46.4,43.5,39.6,46.4,43.4,39.5,99,99,99,0.00,40.00,0,-999,0,0.00
2013-5-26,52.7,45.6,38.7,51.9,44.0,38.6,99,95,71,0.00,40.00,0,-999,0,0.00
2013-5-27,71.1,54.5,39.6,49.4,-9.7,-99.9,99,69,28,0.00,40.00,0,-999,0,0.00
2013-5-28,74.7,57.9,40.6,60.6,1.9,-99.9,99,74,31,0.00,40.00,0,-999,0,0.00
2013-5-29,75.4,63.6,55.9,75.3,63.6,55.9,99,99,96,0.00,40.00,0,-999,0,0.00
2013-5-30,84.6,71.8,60.1,82.0,70.3,60.0,99,95,63,0.00,40.00,0,-999,0,0.00
2013-5-31,91.0,76.6,63.9,80.0,45.1,-99.9,99,80,40,0.00,40.00,0,-999,0,0.00
2013-6-1,91.4,77.1,64.4,76.6,62.1,-99.9,99,82,43,0.00,40.00,0,-999,0,0.00
2013-6-2,89.8,75.4,66.4,78.5,53.4,-99.9,99,87,44,0.00,40.00,0,-999,0,0.00
2013-6-3,75.2,66.7,54.9,74.6,66.3,49.3,99,98,79,0.00,40.00,0,-999,0,0.00
2013-6-4,70.9,58.3,46.8,55.4,17.3,-99.9,99,76,40,0.00,40.00,0,-999,0,0.00
2013-6-5,75.6,60.6,45.7,60.6,23.4,-99.9,99,74,34,0.00,40.00,0,-999,0,0.00
2013-6-6,73.4,61.5,50.4,61.7,37.4,-99.9,99,78,41,0.00,40.00,0,-999,0,0.00
2013-6-7,57.2,54.9,51.6,57.2,54.8,51.6,99,99,99,0.00,40.00,0,-999,0,0.00
2013-6-8,73.2,60.5,50.9,73.0,60.1,50.9,99,98,82,0.00,40.00,0,-999,0,0.00
2013-6-9,79.3,65.0,54.9,65.8,59.2,54.8,99,83,51,0.00,40.00,0,-999,0,0.00
2013-6-10,67.8,59.9,52.3,67.6,59.6,52.3,99,98,80,0.00,40.00,0,-999,0,0.00
2013-6-11,66.9,59.4,55.6,66.9,59.4,55.5,99,99,99,0.00,40.00,0,-999,0,0.00
2013-6-12,67.6,60.1,53.8,64.2,58.3,53.6,99,94,69,0.00,40.00,0,-999,0,0.00
2013-6-13,58.3,53.2,48.2,58.1,53.2,48.2,99,99,99,0.00,40.00,0,-999,0,0.00
2013-6-14,70.7,57.5,49.3,66.5,55.8,49.2,99,94,66,0.00,40.00,0,-999,0,0.00
2013-6-15,77.5,62.7,50.9,61.8,16.5,-99.9,99,72,32,0.00,40.00,0,-999,0,0.00
2013-6-16,73.2,63.4,50.0,69.3,58.9,50.0,99,87,60,0.00,40.00,0,-999,0,0.00
2013-6-17,84.6,68.3,59.2,72.1,63.6,-99.9,99,88,49,0.00,40.00,0,-999,0,0.00
2013-6-18,76.3,62.3,56.5,74.0,62.0,56.4,99,98,78,0.00,40.00,0,-999,0,0.00
2013-6-19,73.8,61.6,53.1,65.1,36.5,-99.9,99,84,36,0.00,40.00,0,-999,0,0.00
2013-6-20,79.2,62.9,46.9,63.2,24.8,-99.9,99,79,38,0.00,40.00,0,-999,0,0.00
2013-6-21,82.8,68.9,56.5,77.5,65.2,56.4,99,89,55,0.00,40.00,0,-999,0,0.00
2013-6-22,84.6,71.5,60.4,69.1,54.0,-99.9,99,79,42,0.00,40.00,0,-999,0,0.00
2013-6-23,89.4,74.9,61.9,77.6,70.3,60.4,99,87,55,0.00,40.00,0,-999,0,0.00
2013-6-24,91.8,76.7,66.7,83.1,73.3,66.7,99,90,57,0.00,40.00,0,-999,0,0.00
2013-6-25,89.1,74.4,64.0,81.4,71.5,64.0,99,91,60,0.00,40.00,0,-999,0,0.00
2013-6-26,81.0,73.4,67.8,80.0,73.1,67.8,99,98,79,0.00,40.00,0,-999,0,0.00
2013-6-27,79.7,71.3,65.7,78.2,71.2,65.6,99,99,90,0.00,40.00,0,-999,0,0.00
2013-6-28,78.1,70.2,64.4,77.9,70.2,64.4,99,99,99,0.00,40.00,0,-999,0,0.00
2013-6-29,82.8,73.4,67.6,80.0,71.8,67.6,99,95,68,0.00,40.00,0,-999,0,0.00
2013-6-30,85.3,75.1,67.5,80.4,73.6,67.4,99,95,70,0.00,40.00,0,-999,0,0.00
2013-7-1,77.7,73.0,70.5,77.7,72.9,70.5,99,99,99,0.00,40.00,0,-999,0,0.00
2013-7-2,81.0,74.5,70.5,80.9,74.4,70.5,99,99,99,0.00,40.00,0,-999,0,0.00
2013-7-3,88.0,77.0,71.2,83.1,75.9,71.2,99,96,71,0.00,40.00,0,-999,0,0.00
2013-7-4,91.2,79.3,71.1,84.3,77.2,71.0,99,93,65,0.00,40.00,0,-999,0,0.00
2013-7-5,91.8,80.8,72.3,84.6,77.8,72.3,99,91,61,0.00,40.00,0,-999,0,0.00
2013-7-6,88.9,79.2,72.7,83.9,77.5,72.6,99,95,63,0.00,40.00,0,-999,0,0.00
2013-7-7,91.9,75.2,69.4,85.1,74.0,69.4,99,96,64,0.00,40.00,0,-999,0,0.00
2013-7-8,85.6,74.9,68.5,82.2,73.8,68.5,99,96,67,0.00,40.00,0,-999,0,0.00
2013-7-9,78.1,71.8,68.2,77.9,71.7,68.1,99,99,99,0.00,40.00,0,-999,0,0.00
2013-7-10,85.1,74.2,68.7,83.7,74.1,68.7,99,99,91,0.00,40.00,0,-999,0,0.00
2013-7-11,79.0,73.4,67.3,78.9,73.4,67.2,99,99,99,0.00,40.00,0,-999,0,0.00
2013-7-12,81.0,70.6,63.9,70.7,65.5,58.6,99,85,64,0.00,40.00,0,-999,0,0.00
2013-7-13,77.0,70.1,64.9,77.0,70.0,61.0,99,99,86,0.00,40.00,0,-999,0,0.00
2013-7-14,86.4,77.1,71.2,84.3,76.7,71.0,99,98,77,0.00,40.00,0,-999,0,0.00
2013-7-15,88.9,78.0,70.3,83.8,76.3,70.3,99,94,66,0.00,40.00,0,-999,0,0.00
2013-7-16,90.1,77.8,67.6,82.7,73.9,67.6,99,88,53,0.00,40.00,0,-999,0,0.00
2013-7-17,91.2,78.6,67.8,86.3,76.0,67.8,99,92,59,0.00,40.00,0,-999,0,0.00
2013-7-18,92.3,81.0,72.3,88.1,78.5,72.3,99,92,60,0.00,40.00,0,-999,0,0.00
2013-7-19,94.1,82.5,72.7,87.2,79.2,72.6,99,90,57,0.00,40.00,0,-999,0,0.00
2013-7-20,89.4,80.0,70.0,85.2,78.9,69.8,99,96,69,0.00,40.00,0,-999,0,0.00
2013-7-21,85.6,73.6,63.9,79.3,69.7,63.8,99,89,52,0.00,40.00,0,-999,0,0.00
2013-7-22,85.8,74.2,64.8,78.8,71.2,64.7,99,91,57,0.00,40.00,0,-999,0,0.00
2013-7-23,82.4,72.8,69.4,82.4,72.8,69.4,99,99,99,0.00,40.00,0,-999,0,0.00
2013-7-24,79.2,72.0,63.3,76.9,70.5,61.3,99,95,68,0.00,40.00,0,-999,0,0.00
2013-7-25,64.0,60.1,55.8,64.0,58.4,50.2,99,95,78,0.00,40.00,0,-999,0,0.00
2013-7-26,67.6,62.8,59.2,67.4,62.8,59.1,99,99,99,0.00,40.00,0,-999,0,0.00
2013-7-27,80.4,67.8,56.8,76.8,65.7,56.8,99,94,56,0.00,40.00,0,-999,0,0.00
2013-7-28,79.7,69.8,61.3,77.9,68.5,61.3,99,96,64,0.00,40.00,0,-999,0,0.00
2013-7-29,82.9,72.9,65.8,77.7,69.6,64.7,99,90,55,0.00,40.00,0,-999,0,0.00
2013-7-30,79.0,68.4,58.8,69.8,63.8,58.6,99,87,52,0.00,40.00,0,-999,0,0.00
2013-7-31,80.1,68.4,58.3,75.0,62.8,-99.9,99,87,48,0.00,40.00,0,-999,0,0.00
2013-8-1,77.7,66.0,58.1,74.3,65.5,58.1,99,98,73,0.00,40.00,0,-999,0,0.00
2013-8-2,77.0,68.5,63.3,75.0,67.3,63.3,99,96,66,0.00,40.00,0,-999,0,0.00
2013-8-3,76.3,67.3,61.3,73.7,66.1,61.1,99,96,74,0.00,40.00,0,-999,0,0.00
2013-8-4,76.8,64.3,55.9,68.0,60.7,55.9,99,89,51,0.00,40.00,0,-999,0,0.00
2013-8-5,73.2,61.3,51.8,61.5,41.5,-99.9,99,83,42,0.00,40.00,0,-999,0,0.00
2013-8-6,76.1,62.2,47.7,66.2,55.8,-99.9,99,83,47,0.00,40.00,0,-999,0,0.00
2013-8-7,78.3,66.6,54.9,67.8,59.0,-99.9,99,84,48,0.00,40.00,0,-999,0,0.00
2013-8-8,79.3,71.4,66.2,78.9,71.3,66.2,99,99,94,0.00,40.00,0,-999,0,0.00
2013-8-9,74.5,71.8,70.2,74.4,71.8,70.1,99,99,99,0.00,40.00,0,-999,0,0.00
2013-8-10,77.5,68.4,58.5,74.1,64.4,52.2,99,88,56,0.00,40.00,0,-999,0,0.00
2013-8-11,75.0,63.3,51.3,67.4,59.4,51.2,99,89,58,0.00,40.00,0,-999,0,0.00
2013-8-12,77.9,66.9,57.0,73.4,63.2,57.0,99,89,55,0.00,40.00,0,-999,0,0.00
2013-8-13,72.3,66.8,62.8,72.1,66.7,62.7,99,99,99,0.00,40.00,0,-999,0,0.00
2013-8-14,69.3,61.6,52.5,65.3,58.8,52.5,99,92,66,0.00,40.00,0,-999,0,0.00
2013-8-15,72.5,60.6,50.7,63.8,57.0,50.7,99,89,55,0.00,40.00,0,-999,0,0.00
2013-8-16,74.1,61.8,50.5,69.9,59.1,50.5,99,92,58,0.00,40.00,0,-999,0,0.00
2013-8-17,77.0,64.1,52.0,72.5,61.1,51.9,99,91,55,0.00,40.00,0,-999,0,0.00
2013-8-18,74.3,65.2,55.8,74.3,65.0,55.7,99,99,92,0.00,40.00,0,-999,0,0.00
2013-8-19,76.6,66.9,57.7,73.4,65.3,57.7,99,95,71,0.00,40.00,0,-999,0,0.00
2013-8-20,79.7,68.6,59.4,75.9,66.0,59.1,99,92,64,0.00,40.00,0,-999,0,0.00
2013-8-21,82.0,69.5,58.5,77.2,67.0,58.4,99,92,63,0.00,40.00,0,-999,0,0.00
2013-8-22,80.6,71.4,61.7,79.5,71.2,61.7,99,99,91,0.00,40.00,0,-999,0,0.00
2013-8-23,77.2,68.8,59.2,70.7,63.9,59.1,99,86,54,0.00,40.00,0,-999,0,0.00
2013-8-24,74.3,62.1,50.9,67.6,56.8,-99.9,99,86,49,0.00,40.00,0,-999,0,0.00
2013-8-25,76.5,63.2,49.6,67.8,56.4,-99.9,99,85,49,0.00,40.00,0,-999,0,0.00
2013-8-26,76.8,68.7,63.1,74.4,67.1,60.2,99,95,78,0.00,40.00,0,-999,0,0.00
2013-8-27,79.3,71.2,66.6,79.3,71.1,66.5,99,99,96,0.00,40.00,0,-999,0,0.00
2013-10-21,61.7,53.8,49.3,48.7,42.4,-99.9,98,72,49,0.00,40.00,0,-999,0,0.00
2013-10-22,61.5,51.8,44.1,58.4,49.5,40.4,99,93,69,0.00,40.00,0,-999,0,0.00
2013-10-23,48.7,41.2,33.4,43.1,38.2,33.2,99,91,62,0.00,40.00,0,-999,0,0.00
2013-10-24,50.5,41.4,33.1,40.8,2.1,-99.9,99,72,36,0.00,40.00,0,-999,0,0.00
2013-10-25,47.1,38.5,31.6,37.4,20.9,-99.9,99,79,47,0.00,40.00,0,-999,0,0.00
2013-10-26,51.1,40.9,29.1,38.8,3.6,-99.9,99,73,39,0.00,40.00,0,-999,0,0.00
2013-10-27,51.1,44.6,35.4,38.9,19.9,-99.9,97,70,47,0.00,40.00,0,-999,0,0.00
2013-10-28,55.4,40.7,28.8,37.1,27.2,-99.9,99,78,47,0.00,40.00,0,-999,0,0.00
2013-10-29,45.0,34.6,27.5,30.0,2.3,-99.9,99,74,42,0.00,40.00,0,-999,0,0.00
2013-10-30,50.5,37.5,28.2,46.7,35.7,23.8,99,94,77,0.00,40.00,0,-999,0,0.00
2013-10-31,59.0,45.8,30.9,59.0,45.8,30.9,99,99,99,0.00,40.00,0,-999,0,0.00
2013-11-1,64.8,60.7,54.1,64.7,60.6,54.1,99,99,95,0.00,40.00,0,-999,0,0.00
2013-11-2,61.2,50.2,40.3,53.7,45.8,40.2,99,87,53,0.00,40.00,0,-999,0,0.00
2013-11-3,45.3,38.5,28.2,45.3,18.7,-99.9,99,73,35,0.00,40.00,0,-999,0,0.00
2013-11-4,39.4,30.4,24.4,23.0,-12.7,-99.9,91,63,37,0.00,40.00,0,-999,0,0.00
2013-11-5,47.1,35.9,24.1,41.3,30.8,21.9,99,85,53,0.00,40.00,0,-999,0,0.00
2013-11-6,57.7,48.7,38.5,51.6,44.9,38.4,99,89,62,0.00,40.00,0,-999,0,0.00
2013-11-7,59.9,50.2,36.3,59.9,49.9,30.6,99,98,84,0.00,40.00,0,-999,0,0.00
2013-11-8,44.1,35.5,28.4,39.7,27.9,-99.9,99,80,49,0.00,40.00,0,-999,0,0.00
2013-11-9,41.9,34.4,26.2,32.4,27.0,22.2,99,79,50,0.00,40.00,0,-999,0,0.00
2013-11-10,49.5,42.7,38.8,44.0,37.2,28.0,99,84,65,0.00,40.00,0,-999,0,0.00
2013-11-11,47.1,41.9,34.3,31.2,17.5,-99.9,82,61,47,0.00,40.00,0,-999,0,0.00
2013-11-12,46.2,32.8,24.1,42.0,23.0,13.1,99,72,51,0.00,40.00,0,-999,0,0.00
2013-11-13,31.8,25.4,19.0,16.6,-9.8,-99.9,91,64,39,0.00,40.00,0,-999,0,0.00
2013-11-14,47.8,36.3,27.7,22.7,-46.8,-99.9,73,53,37,0.00,40.00,0,-999,0,0.00
2013-11-15,57.4,41.3,27.9,29.3,-34.9,-99.9,83,49,19,0.00,40.00,0,-999,0,0.00
2013-11-16,54.1,42.1,33.8,36.0,10.3,-99.9,99,72,43,0.00,40.00,0,-999,0,0.00
2013-11-17,57.2,46.6,32.5,57.2,46.6,32.5,99,99,99,0.00,40.00,0,-999,0,0.00
2013-11-18,60.8,55.4,43.3,60.8,47.7,31.7,99,78,53,0.00,40.00,0,-999,0,0.00
2013-11-19,43.0,35.9,27.5,32.5,2.6,-99.9,73,60,46,0.00,40.00,0,-999,0,0.00
2013-11-20,36.3,28.1,20.8,18.1,-4.6,-99.9,89,63,42,0.00,40.00,0,-999,0,0.00
2013-11-21,42.4,30.3,16.9,36.1,20.0,-99.9,99,80,46,0.00,40.00,0,-999,0,0.00
2013-11-22,46.4,42.6,37.6,46.4,42.5,36.9,99,99,98,0.00,40.00,0,-999,0,0.00
2013-11-23,46.2,35.3,23.7,46.2,25.0,-99.9,99,77,47,0.00,40.00,0,-999,0,0.00
2013-11-24,23.5,19.3,15.6,23.5,-52.4,-99.9,99,52,31,0.00,40.00,0,-999,0,0.00
2013-11-25,28.6,21.3,11.8,13.8,-37.1,-99.9,60,50,34,0.00,40.00,0,-999,0,0.00
2013-11-26,36.3,31.8,26.6,35.0,22.6,11.2,99,74,51,0.00,40.00,0,-999,0,0.00
2013-11-27,57.6,43.2,32.5,57.5,43.1,32.5,99,99,99,0.00,40.00,0,-999,0,0.00
2013-11-28,32.9,25.2,19.2,32.9,3.1,-99.9,99,71,45,0.00,40.00,0,-999,0,0.00
2013-11-29,29.7,23.1,15.6,20.8,8.7,-99.9,99,72,47,0.00,40.00,0,-999,0,0.00
2013-11-30,30.0,20.7,9.3,23.6,11.9,6.4,99,75,50,0.00,40.00,0,-999,0,0.00
2013-12-1,39.2,33.3,28.0,39.2,32.9,23.3,99,98,87,0.00,40.00,0,-999,0,0.00
2013-12-2,37.6,34.6,31.3,37.5,34.5,31.2,99,99,99,0.00,40.00,0,-999,0,0.00
2013-12-3,43.9,33.8,27.9,43.1,33.6,27.8,99,98,86,0.00,40.00,0,-999,0,0.00
2013-12-4,42.1,31.3,25.5,35.7,29.3,25.3,99,94,63,0.00,40.00,0,-999,0,0.00
2013-12-5,53.2,41.7,29.7,53.2,41.7,29.6,99,99,99,0.00,40.00,0,-999,0,0.00
2013-12-6,53.4,44.3,32.2,53.4,44.2,32.0,99,99,99,0.00,40.00,0,-999,0,0.00
2013-12-7,33.8,30.5,24.4,33.8,29.4,22.6,99,96,75,0.00,40.00,0,-999,0,0.00
2013-12-8,29.1,25.1,19.6,26.4,19.2,13.0,99,83,57,0.00,40.00,0,-999,0,0.00
2013-12-9,32.7,29.2,23.4,32.7,28.7,17.4,99,98,76,0.00,40.00,0,-999,0,0.00
2013-12-10,32.4,28.5,19.4,32.3,28.4,19.2,99,99,99,0.00,40.00,0,-999,0,0.00
2013-12-11,28.4,22.2,19.0,23.0,19.9,16.6,99,93,75,0.00,40.00,0,-999,0,0.00
2013-12-12,21.2,16.3,11.5,21.2,-2.5,-99.9,99,76,42,0.00,40.00,0,-999,0,0.00
2013-12-13,27.0,19.3,12.2,20.9,10.5,4.4,99,75,58,0.00,40.00,0,-999,0,0.00
2013-12-14,17.2,12.8,10.0,16.8,4.5,-5.3,99,77,53,0.00,40.00,0,-999,0,0.00
2013-12-15,28.2,24.5,17.1,28.2,24.0,17.0,99,98,88,0.00,40.00,0,-999,0,0.00
2013-12-16,26.6,19.9,11.7,22.1,1.5,-99.9,99,72,45,0.00,40.00,0,-999,0,0.00
2013-12-17,13.6,9.1,0.1,13.6,8.2,-2.1,99,97,82,0.00,40.00,0,-999,0,0.00
2013-12-18,29.5,20.3,11.8,24.4,18.9,11.8,99,95,77,0.00,40.00,0,-999,0,0.00
2013-12-19,37.6,30.0,21.6,30.7,24.0,20.9,99,83,59,0.00,40.00,0,-999,0,0.00
2013-12-20,47.8,37.6,29.1,35.5,32.2,29.1,99,85,58,0.00,40.00,0,-999,0,0.00
2013-12-21,53.2,45.3,34.3,50.7,43.3,33.0,99,94,79,0.00,40.00,0,-999,0,0.00
2013-12-22,63.3,57.5,49.6,63.1,57.5,49.6,99,99,99,0.00,40.00,0,-999,0,0.00
2013-12-23,57.7,40.0,34.0,57.7,39.9,33.9,99,99,88,0.00,40.00,0,-999,0,0.00
2013-12-24,33.8,28.9,19.9,33.8,22.0,6.7,99,80,57,0.00,40.00,0,-999,0,0.00
2013-12-25,20.7,16.6,11.3,6.9,-14.4,-99.9,74,60,43,0.00,40.00,0,-999,0,0.00
2013-12-26,30.0,22.8,15.8,30.0,20.4,3.5,99,92,65,0.00,40.00,0,-999,0,0.00
2013-12-27,31.5,25.2,18.5,25.7,21.4,18.3,99,89,67,0.00,40.00,0,-999,0,0.00
2013-12-28,40.5,31.4,23.4,31.5,26.7,23.3,99,86,59,0.00,40.00,0,-999,0,0.00
2013-12-29,39.4,33.1,27.3,38.3,32.7,27.3,99,98,77,0.00,40.00,0,-999,0,0.00
2013-12-30,36.7,27.7,13.6,36.6,20.9,5.7,99,80,51,0.00,40.00,0,-999,0,0.00
2013-12-31,21.7,15.9,9.3,19.2,10.3,1.0,99,84,52,0.00,40.00,0,-999,0,0.00
2014-1-1,25.2,19.0,14.2,14.2,-5.0,-99.9,87,65,46,0.00,40.00,0,-999,0,0.00
2014-1-2,18.5,12.6,2.5,18.3,12.0,1.7,99,98,86,0.00,40.00,0,-999,0,0.00